Time;durP1;ratioP1;P1;durP2;ratioP2;P2;SDS_P1;SDS_P2;PMS_P1;PMS_P2;Temp;Humidity;BMP_temperature;BMP_pressure;BME280_temperature;BME280_humidity;BME280_pressure;Samples;Min_cycle;Max_cycle;Signal;HPM_P1;HPM_P2
2022/04/03 00:01:42;;;;;;;2.55;1.30;;;-3.60;93.80;;;;;;5058831;28;20611;-63
2022/04/03 00:04:08;;;;;;;1.40;1.00;;;-3.70;92.70;;;;;;5053146;28;20520;-64
2022/04/03 00:06:33;;;;;;;1.30;0.95;;;-3.80;91.40;;;;;;5062682;28;20064;-62
2022/04/03 00:08:59;;;;;;;3.83;1.05;;;-3.80;91.90;;;;;;5055217;28;20195;-55
2022/04/03 00:11:26;;;;;;;2.17;1.02;;;-3.90;91.50;;;;;;5066519;28;20136;-55
2022/04/03 00:13:52;;;;;;;2.00;1.02;;;-3.90;91.30;;;;;;5064732;28;20036;-54
2022/04/03 00:16:18;;;;;;;1.92;1.15;;;-3.90;91.10;;;;;;5054672;28;20074;-50
2022/04/03 00:18:45;;;;;;;2.25;1.08;;;-4.00;89.40;;;;;;5064948;28;20035;-55
2022/04/03 00:21:13;;;;;;;2.42;0.90;;;-4.00;91.70;;;;;;5067190;28;20071;-54
2022/04/03 00:23:38;;;;;;;3.15;1.20;;;-4.00;90.10;;;;;;5052412;28;20067;-55
2022/04/03 00:26:04;;;;;;;2.15;1.15;;;-4.10;90.30;;;;;;5057012;28;20048;-54
2022/04/03 00:28:30;;;;;;;1.38;0.80;;;-4.10;89.30;;;;;;5051135;28;20548;-53
2022/04/03 00:30:56;;;;;;;1.85;0.80;;;-4.20;90.50;;;;;;5066517;28;20036;-52
2022/04/03 00:33:22;;;;;;;3.92;0.95;;;-4.20;91.20;;;;;;5056372;28;20040;-51
2022/04/03 00:35:47;;;;;;;2.50;1.27;;;-4.30;91.10;;;;;;5063603;28;20079;-54
2022/04/03 00:38:13;;;;;;;2.72;1.05;;;-4.40;90.10;;;;;;5049418;28;20116;-55
2022/04/03 00:40:38;;;;;;;1.45;1.00;;;-4.30;92.70;;;;;;5055518;28;20434;-53
2022/04/03 00:43:04;;;;;;;1.02;0.70;;;-4.30;92.40;;;;;;5068425;28;20115;-51
2022/04/03 00:45:29;;;;;;;0.88;0.70;;;-4.30;91.70;;;;;;5047646;28;20033;-55
2022/04/03 00:47:56;;;;;;;2.05;1.13;;;-4.40;91.70;;;;;;5068154;28;20159;-53
2022/04/03 00:50:22;;;;;;;2.50;1.27;;;-4.40;95.70;;;;;;5047440;28;20025;-54
2022/04/03 00:52:48;;;;;;;3.72;1.40;;;-4.40;94.00;;;;;;5068539;28;20135;-53
2022/04/03 00:55:14;;;;;;;1.20;0.90;;;-4.50;92.60;;;;;;5047666;28;20452;-52
2022/04/03 00:57:43;;;;;;;2.88;1.30;;;-4.60;93.40;;;;;;5068527;28;20463;-52
2022/04/03 01:00:09;;;;;;;3.10;1.23;;;-4.60;92.80;;;;;;5046996;28;20013;-54
2022/04/03 01:02:35;;;;;;;2.28;1.25;;;-4.70;95.10;;;;;;5047744;28;20153;-53
2022/04/03 01:05:02;;;;;;;2.10;0.93;;;-4.70;95.70;;;;;;5066188;28;20021;-51
2022/04/03 01:07:28;;;;;;;1.60;0.80;;;-4.70;94.50;;;;;;5051089;28;20441;-54
2022/04/03 01:09:53;;;;;;;1.70;1.00;;;-4.80;95.50;;;;;;5047540;28;20117;-54
2022/04/03 01:12:19;;;;;;;2.88;1.15;;;-4.80;96.10;;;;;;5048789;28;20128;-50
2022/04/03 01:14:44;;;;;;;3.45;1.23;;;-4.90;95.30;;;;;;5066300;28;20025;-54
2022/04/03 01:17:13;;;;;;;2.33;0.98;;;-4.90;95.80;;;;;;5061969;28;20025;-49
2022/04/03 01:19:39;;;;;;;1.85;1.10;;;-4.90;96.90;;;;;;5046993;28;20021;-52
2022/04/03 01:22:06;;;;;;;2.03;1.05;;;-4.90;97.60;;;;;;5048816;28;20025;-47
2022/04/03 01:24:32;;;;;;;2.67;1.00;;;-4.90;98.80;;;;;;5066113;28;20062;-53
2022/04/03 01:26:57;;;;;;;3.58;1.77;;;-4.80;99.80;;;;;;5068945;28;20522;-48
2022/04/03 01:29:24;;;;;;;4.90;1.38;;;-4.70;99.40;;;;;;5047301;28;20029;-48
2022/04/03 01:31:50;;;;;;;2.20;1.65;;;-4.50;99.90;;;;;;5048497;28;20048;-50
2022/04/03 01:34:17;;;;;;;6.18;2.17;;;-4.50;98.10;;;;;;5068086;28;20025;-53
2022/04/03 01:36:44;;;;;;;3.30;1.90;;;-4.30;98.60;;;;;;5049038;28;20056;-49
2022/04/03 01:39:10;;;;;;;1.58;1.23;;;-4.20;98.30;;;;;;5068059;28;20507;-49
2022/04/03 01:41:40;;;;;;;1.83;0.98;;;-4.20;97.40;;;;;;5066299;28;20041;-51
2022/04/03 01:44:08;;;;;;;4.18;1.40;;;-4.30;96.30;;;;;;5052033;28;20025;-48
2022/04/03 01:46:34;;;;;;;5.00;1.17;;;-4.40;95.90;;;;;;5055984;28;20036;-48
2022/04/03 01:48:59;;;;;;;4.00;1.33;;;-4.40;96.50;;;;;;5072309;28;20036;-52
2022/04/03 01:51:25;;;;;;;3.38;1.10;;;-4.50;99.90;;;;;;5066470;28;20474;-52
2022/04/03 01:53:50;;;;;;;3.72;0.98;;;-4.50;99.40;;;;;;5072419;28;20387;-47
2022/04/03 01:56:16;;;;;;;2.70;1.50;;;-4.60;98.40;;;;;;5052198;28;20033;-52
2022/04/03 01:58:41;;;;;;;1.88;1.10;;;-4.70;99.30;;;;;;5050425;28;20120;-49
2022/04/03 02:01:07;;;;;;;2.28;1.27;;;-4.70;99.90;;;;;;5071310;28;20032;-50
2022/04/03 02:03:32;;;;;;;1.55;1.40;;;-4.80;99.90;;;;;;5068805;28;20028;-47
2022/04/03 02:05:58;;;;;;;1.92;1.00;;;-4.80;99.90;;;;;;5052606;28;20037;-50
2022/04/03 02:08:25;;;;;;;3.28;1.30;;;-4.80;99.90;;;;;;5052633;28;20056;-52
2022/04/03 02:10:51;;;;;;;1.15;1.00;;;-4.90;99.80;;;;;;5071290;28;20091;-50
2022/04/03 02:13:16;;;;;;;3.15;1.40;;;-4.90;99.90;;;;;;5066718;28;20064;-51
2022/04/03 02:15:42;;;;;;;2.45;1.20;;;-4.90;99.90;;;;;;5055894;28;20488;-48
2022/04/03 02:18:09;;;;;;;2.10;1.35;;;-4.80;99.90;;;;;;5069916;28;20499;-47
2022/04/03 02:20:35;;;;;;;2.33;1.40;;;-4.80;99.90;;;;;;5052440;28;20025;-49
2022/04/03 02:23:01;;;;;;;2.90;1.40;;;-4.70;99.90;;;;;;5055455;28;20041;-47
2022/04/03 02:25:26;;;;;;;3.40;1.73;;;-4.60;99.90;;;;;;5071156;28;20036;-48
2022/04/03 02:27:52;;;;;;;3.13;1.23;;;-4.50;99.90;;;;;;5062928;28;20033;-50
2022/04/03 02:30:18;;;;;;;2.47;1.50;;;-4.40;99.90;;;;;;5052182;28;20476;-53
2022/04/03 02:32:44;;;;;;;2.65;1.55;;;-4.30;99.90;;;;;;5057703;28;20503;-54
2022/04/03 02:35:12;;;;;;;2.63;1.05;;;-4.20;99.90;;;;;;5070968;28;20119;-52
2022/04/03 02:37:39;;;;;;;1.65;1.13;;;-4.10;99.90;;;;;;5049780;28;20518;-52
2022/04/03 02:40:08;;;;;;;2.40;0.98;;;-4.00;99.90;;;;;;5070891;28;20028;-52
2022/04/03 02:42:34;;;;;;;2.83;1.08;;;-3.90;99.90;;;;;;5049767;28;20223;-49
2022/04/03 02:44:59;;;;;;;2.03;1.38;;;-3.70;99.90;;;;;;5070722;28;20062;-53
2022/04/03 02:47:25;;;;;;;2.25;1.10;;;-3.70;99.90;;;;;;5049855;28;20095;-47
2022/04/03 02:49:51;;;;;;;1.77;1.30;;;-3.60;98.10;;;;;;5070605;28;20082;-53
2022/04/03 02:52:18;;;;;;;2.30;1.08;;;-3.50;96.20;;;;;;5049937;28;20040;-50
2022/04/03 02:54:45;;;;;;;1.70;1.17;;;-3.50;97.30;;;;;;5069534;28;20035;-49
2022/04/03 02:57:11;;;;;;;2.90;1.35;;;-3.40;97.30;;;;;;5049649;28;20028;-54
2022/04/03 02:59:36;;;;;;;2.38;1.20;;;-3.30;97.10;;;;;;5051066;28;20059;-49
2022/04/03 03:02:02;;;;;;;1.42;0.90;;;-3.30;95.10;;;;;;5068465;28;20521;-49
2022/04/03 03:04:27;;;;;;;1.83;1.20;;;-3.20;96.60;;;;;;5071216;28;20020;-51
2022/04/03 03:06:53;;;;;;;1.55;1.02;;;-3.20;97.60;;;;;;5049630;28;20056;-48
2022/04/03 03:09:19;;;;;;;3.90;1.13;;;-3.10;96.30;;;;;;5051095;28;20025;-50
2022/04/03 03:11:45;;;;;;;1.75;1.00;;;-3.00;95.20;;;;;;5068174;28;20089;-50
2022/04/03 03:14:10;;;;;;;4.43;1.50;;;-3.00;93.10;;;;;;5070968;28;20020;-51
2022/04/03 03:16:36;;;;;;;2.63;1.42;;;-2.90;93.60;;;;;;5045839;28;20114;-50
2022/04/03 03:19:01;;;;;;;1.88;1.33;;;-2.80;92.70;;;;;;5050825;28;20021;-54
2022/04/03 03:21:27;;;;;;;2.95;1.30;;;-2.80;92.40;;;;;;5068629;28;20029;-48
2022/04/03 03:23:52;;;;;;;3.40;1.58;;;-2.70;91.50;;;;;;5070836;28;20086;-47
2022/04/03 03:26:20;;;;;;;2.83;1.58;;;-2.60;93.40;;;;;;5051264;28;20031;-53
2022/04/03 03:28:46;;;;;;;3.17;1.70;;;-2.60;92.70;;;;;;5050484;28;20172;-48
2022/04/03 03:31:11;;;;;;;3.65;1.63;;;-2.50;90.80;;;;;;5069877;28;20466;-49
2022/04/03 03:33:37;;;;;;;5.90;2.38;;;-2.50;90.30;;;;;;5068039;28;20033;-51
2022/04/03 03:36:03;;;;;;;3.10;1.60;;;-2.40;88.70;;;;;;5050892;28;20036;-50
2022/04/03 03:38:29;;;;;;;2.85;1.60;;;-2.30;87.20;;;;;;5050477;28;20403;-48
2022/04/03 03:40:55;;;;;;;4.50;1.92;;;-2.30;90.00;;;;;;5069873;28;20027;-47
2022/04/03 03:43:21;;;;;;;3.33;2.00;;;-2.30;86.50;;;;;;5062788;28;20111;-53
2022/04/03 03:45:46;;;;;;;7.68;1.90;;;-2.20;86.60;;;;;;5068886;28;20464;-50
2022/04/03 03:48:12;;;;;;;4.50;1.70;;;-2.20;85.40;;;;;;5054991;28;20102;-48
2022/04/03 03:50:37;;;;;;;5.38;2.30;;;-2.10;86.60;;;;;;5065396;28;20020;-51
2022/04/03 03:53:03;;;;;;;2.33;1.60;;;-2.10;84.10;;;;;;5070731;28;20032;-50
2022/04/03 03:55:28;;;;;;;3.20;1.77;;;-2.10;84.70;;;;;;5049316;28;20436;-52
2022/04/03 03:57:54;;;;;;;4.75;1.75;;;-2.00;84.80;;;;;;5050373;28;20048;-48
2022/04/03 04:00:20;;;;;;;2.90;1.80;;;-2.00;82.80;;;;;;5068530;28;20450;-53
2022/04/03 04:02:45;;;;;;;3.15;1.70;;;-1.90;84.90;;;;;;5070543;28;20060;-49
2022/04/03 04:05:11;;;;;;;3.83;1.92;;;-1.80;86.10;;;;;;5050515;28;20036;-54
2022/04/03 04:07:38;;;;;;;2.95;1.52;;;-1.80;85.40;;;;;;5048953;28;20025;-50
2022/04/03 04:10:04;;;;;;;3.35;1.67;;;-1.80;86.00;;;;;;5069526;28;20032;-51
2022/04/03 04:12:30;;;;;;;2.90;1.80;;;-1.70;84.80;;;;;;5066804;28;20051;-50
2022/04/03 04:14:55;;;;;;;3.28;2.22;;;-1.80;87.10;;;;;;5050653;28;20033;-52
2022/04/03 04:17:21;;;;;;;3.45;2.03;;;-1.80;90.20;;;;;;5044939;28;20160;-49
2022/04/03 04:19:46;;;;;;;4.78;1.67;;;-1.80;91.00;;;;;;5068927;28;20074;-52
2022/04/03 04:22:12;;;;;;;2.10;1.33;;;-1.70;92.40;;;;;;5064193;28;20028;-50
2022/04/03 04:24:37;;;;;;;4.05;1.70;;;-1.70;91.00;;;;;;5050192;28;20087;-48
2022/04/03 04:27:03;;;;;;;3.17;1.70;;;-1.70;90.40;;;;;;5052834;28;20036;-49
2022/04/03 04:29:29;;;;;;;4.13;1.73;;;-1.70;88.00;;;;;;5069141;28;20021;-50
2022/04/03 04:31:54;;;;;;;2.53;1.50;;;-1.70;86.20;;;;;;5061411;28;20029;-50
2022/04/03 04:34:20;;;;;;;4.40;1.80;;;-1.70;86.20;;;;;;5050185;28;20053;-50
2022/04/03 04:36:45;;;;;;;2.83;1.52;;;-1.70;88.10;;;;;;5055428;28;20055;-52
2022/04/03 04:39:11;;;;;;;4.38;1.85;;;-1.70;87.30;;;;;;5068770;28;20028;-50
2022/04/03 04:41:37;;;;;;;4.85;1.80;;;-1.70;87.00;;;;;;5048095;28;20108;-49
2022/04/03 04:44:42;;;;;;;4.32;2.53;;;-1.70;85.40;;;;;;5068537;28;20483;-52
2022/04/03 04:48:07;;;;;;;5.28;1.67;;;-1.70;88.70;;;;;;5047904;28;20049;-48
2022/04/03 04:51:33;;;;;;;4.63;1.63;;;-1.70;89.60;;;;;;5061472;28;20124;-49
2022/04/03 04:54:58;;;;;;;2.63;1.67;;;-1.60;89.10;;;;;;5063472;28;20727;-53
2022/04/03 04:58:24;;;;;;;4.93;2.25;;;-1.60;87.60;;;;;;5053899;28;20039;-52
2022/04/03 05:01:49;;;;;;;5.45;2.22;;;-1.60;85.50;;;;;;5062460;28;20040;-55
2022/04/03 05:05:14;;;;;;;4.40;2.00;;;-1.50;86.50;;;;;;5049207;28;20033;-51
2022/04/03 05:08:40;;;;;;;2.78;1.88;;;-1.50;86.00;;;;;;5049118;28;20032;-51
2022/04/03 05:12:05;;;;;;;3.92;1.80;;;-1.40;85.40;;;;;;5065179;28;20051;-52
2022/04/03 05:15:30;;;;;;;1.67;1.30;;;-1.40;85.70;;;;;;5065156;28;20177;-49
2022/04/03 05:18:56;;;;;;;2.85;1.80;;;-1.30;85.90;;;;;;5067576;28;20033;-52
2022/04/03 05:22:23;;;;;;;3.13;2.30;;;-1.30;85.80;;;;;;5052224;28;20484;-51
2022/04/03 05:25:47;;;;;;;4.78;1.85;;;-1.20;86.00;;;;;;5067706;28;20097;-55
2022/04/03 05:29:12;;;;;;;4.13;2.10;;;-1.10;84.20;;;;;;5069063;28;20048;-54
2022/04/03 05:32:46;;;;;;;3.95;2.35;;;-1.00;82.50;;;;;;5051555;28;20157;-53
2022/04/03 05:36:12;;;;;;;4.68;1.77;;;-0.90;81.00;;;;;;5067556;28;20488;-53
2022/04/03 05:39:37;;;;;;;5.10;2.30;;;-0.80;79.30;;;;;;5053259;28;20066;-56
2022/04/03 05:43:02;;;;;;;8.60;3.10;;;-0.70;79.40;;;;;;5047936;28;20044;-57
2022/04/03 05:46:28;;;;;;;7.18;2.80;;;-0.50;78.40;;;;;;5063877;28;20093;-54
2022/04/03 05:49:53;;;;;;;5.53;3.03;;;-0.40;76.80;;;;;;5066050;28;20040;-53
2022/04/03 05:53:04;;;;;;;8.48;2.90;;;-0.20;76.00;;;;;;5062128;28;20059;-54
2022/04/03 05:56:31;;;;;;;3.63;2.13;;;-0.10;74.50;;;;;;5058348;28;20538;-56
2022/04/03 05:59:55;;;;;;;3.88;2.20;;;0.10;73.00;;;;;;5056089;28;20025;-51
2022/04/03 06:03:13;;;;;;;5.22;1.85;;;0.30;70.90;;;;;;5064186;28;20036;-56
2022/04/03 06:06:38;;;;;;;4.32;2.17;;;0.40;69.20;;;;;;5061481;28;20036;-57
2022/04/03 06:09:23;;;;;;;3.28;2.20;;;0.60;67.50;;;;;;5063391;28;20432;-51
2022/04/03 06:11:49;;;;;;;4.07;1.92;;;0.80;66.00;;;;;;5050012;28;20057;-55
2022/04/03 06:14:14;;;;;;;3.20;1.70;;;1.00;65.00;;;;;;5060097;28;20032;-50
2022/04/03 06:16:40;;;;;;;4.90;2.17;;;1.20;63.30;;;;;;5046660;28;20357;-53
2022/04/03 06:19:06;;;;;;;2.88;2.10;;;1.50;60.90;;;;;;5059776;28;20069;-54
2022/04/03 06:21:31;;;;;;;3.33;1.90;;;1.80;60.00;;;;;;5056741;28;20167;-55
2022/04/03 06:23:56;;;;;;;2.55;1.80;;;2.10;58.00;;;;;;5060398;28;20037;-50
2022/04/03 06:26:22;;;;;;;3.30;2.25;;;2.70;55.30;;;;;;5055394;28;20462;-51
2022/04/03 06:28:47;;;;;;;3.50;2.13;;;2.90;52.60;;;;;;5050551;28;20028;-50
2022/04/03 06:31:13;;;;;;;3.08;2.25;;;3.40;51.00;;;;;;5059423;28;20113;-51
2022/04/03 06:33:39;;;;;;;3.10;1.88;;;3.70;48.20;;;;;;5069160;28;20029;-52
2022/04/03 06:36:06;;;;;;;3.25;2.30;;;4.00;45.50;;;;;;5060904;28;20120;-52
2022/04/03 06:38:32;;;;;;;4.65;1.95;;;4.80;43.90;;;;;;5055011;28;20438;-53
2022/04/03 06:40:58;;;;;;;4.32;2.20;;;5.30;40.50;;;;;;5061774;28;20021;-51
2022/04/03 06:43:26;;;;;;;5.05;2.40;;;6.10;37.50;;;;;;5066457;28;20024;-56
2022/04/03 06:45:52;;;;;;;7.32;2.70;;;6.60;34.60;;;;;;5061805;28;20033;-51
2022/04/03 06:48:19;;;;;;;3.65;2.38;;;7.00;31.30;;;;;;5062667;28;20053;-51
2022/04/03 06:50:44;;;;;;;3.63;2.70;;;7.40;30.80;;;;;;5054773;28;20033;-50
2022/04/03 06:53:10;;;;;;;5.80;2.38;;;7.40;30.50;;;;;;5059303;28;20044;-51
2022/04/03 06:55:35;;;;;;;3.33;2.38;;;7.60;29.20;;;;;;5060486;28;20062;-55
2022/04/03 06:58:02;;;;;;;4.82;1.92;;;8.00;29.90;;;;;;5057927;28;20055;-53
2022/04/03 07:00:28;;;;;;;3.90;2.30;;;9.60;28.00;;;;;;5066688;28;20029;-56
2022/04/03 07:02:54;;;;;;;2.85;2.35;;;10.70;25.10;;;;;;5054801;28;20112;-55
2022/04/03 07:05:20;;;;;;;2.83;2.10;;;12.40;21.40;;;;;;5066856;28;20419;-54
2022/04/03 07:07:46;;;;;;;3.70;2.15;;;14.60;17.70;;;;;;5070620;28;20025;-62
2022/04/03 07:10:11;;;;;;;2.15;1.60;;;15.70;15.20;;;;;;5046528;28;20025;-62
2022/04/03 07:12:38;;;;;;;2.88;2.13;;;15.70;15.20;;;;;;5049194;28;20041;-62
2022/04/03 07:15:05;;;;;;;2.03;1.75;;;15.60;13.80;;;;;;5062325;28;20028;-62
2022/04/03 07:17:30;;;;;;;3.42;2.28;;;17.10;12.80;;;;;;5042898;28;20029;-61
2022/04/03 07:19:56;;;;;;;2.30;2.00;;;18.60;8.70;;;;;;5051466;28;20036;-61
2022/04/03 07:22:22;;;;;;;2.70;1.75;;;19.60;11.00;;;;;;5068533;28;20047;-62
2022/04/03 07:24:47;;;;;;;3.08;1.98;;;20.70;8.80;;;;;;5062499;28;20253;-62
2022/04/03 07:27:13;;;;;;;2.92;2.13;;;21.70;8.40;;;;;;5050071;28;20041;-63
2022/04/03 07:29:38;;;;;;;4.07;1.98;;;22.30;6.80;;;;;;5053704;28;20032;-63
2022/04/03 07:32:05;;;;;;;3.08;1.80;;;22.80;6.20;;;;;;5055483;28;20333;-64
2022/04/03 07:34:31;;;;;;;2.13;1.80;;;23.30;6.10;;;;;;5054655;28;20028;-62
2022/04/03 07:36:56;;;;;;;2.42;1.75;;;23.40;2.90;;;;;;5068588;28;20373;-63
2022/04/03 07:39:23;;;;;;;1.73;1.58;;;23.70;4.00;;;;;;5047715;28;20032;-62
2022/04/03 07:41:49;;;;;;;4.38;1.80;;;24.10;3.70;;;;;;5067981;28;20038;-62
2022/04/03 07:44:15;;;;;;;2.47;1.92;;;24.10;2.80;;;;;;5047572;28;20079;-62
2022/04/03 07:46:40;;;;;;;2.40;1.77;;;24.00;1.10;;;;;;5062277;28;20060;-63
2022/04/03 07:49:06;;;;;;;2.42;1.70;;;24.40;1.90;;;;;;5047163;28;20029;-62
2022/04/03 07:51:32;;;;;;;1.73;1.50;;;24.40;1.90;;;;;;5068447;28;20044;-63
2022/04/03 07:53:57;;;;;;;2.97;1.60;;;24.80;1.50;;;;;;5047518;28;20029;-63
2022/04/03 07:56:23;;;;;;;1.98;1.38;;;25.30;1.40;;;;;;5049249;28;20017;-63
2022/04/03 07:58:49;;;;;;;1.55;1.30;;;25.60;1.00;;;;;;5065894;28;20500;-62
2022/04/03 08:01:14;;;;;;;2.28;1.67;;;24.90;1.00;;;;;;5068962;28;20103;-63
2022/04/03 08:03:39;;;;;;;2.78;1.52;;;24.60;1.00;;;;;;5047423;28;20033;-62
2022/04/03 08:06:06;;;;;;;2.42;1.20;;;22.80;1.00;;;;;;5048747;28;20025;-62
2022/04/03 08:08:31;;;;;;;3.72;1.45;;;23.90;1.00;;;;;;5066113;28;20021;-62
2022/04/03 08:10:57;;;;;;;1.95;1.58;;;23.80;1.00;;;;;;5067738;28;20565;-62
2022/04/03 08:13:22;;;;;;;2.05;1.30;;;22.00;1.00;;;;;;5049708;28;20043;-63
2022/04/03 08:15:48;;;;;;;2.65;1.95;;;22.60;1.00;;;;;;5056425;28;20029;-62
2022/04/03 08:18:14;;;;;;;2.20;1.40;;;23.50;1.00;;;;;;5065854;28;20063;-63
2022/04/03 08:20:40;;;;;;;1.70;0.80;;;23.80;1.00;;;;;;5068667;28;20027;-63
2022/04/03 08:23:06;;;;;;;1.65;0.98;;;24.30;1.00;;;;;;5046616;28;20033;-63
2022/04/03 08:25:33;;;;;;;1.02;0.93;;;24.80;1.00;;;;;;5048785;28;20354;-63
2022/04/03 08:28:00;;;;;;;2.63;1.40;;;24.70;1.00;;;;;;5067774;28;20036;-63
2022/04/03 08:30:29;;;;;;;1.73;1.15;;;22.50;1.00;;;;;;5066480;28;20028;-64
2022/04/03 08:32:55;;;;;;;1.98;1.77;;;22.00;1.00;;;;;;5048346;28;20041;-64
2022/04/03 08:35:24;;;;;;;2.00;1.30;;;19.70;1.00;;;;;;5046475;28;20091;-64
2022/04/03 08:37:50;;;;;;;2.83;1.45;;;18.80;1.00;;;;;;5067841;28;20085;-64
2022/04/03 08:40:16;;;;;;;4.32;1.42;;;18.10;1.00;;;;;;5065233;28;20017;-65
2022/04/03 08:42:42;;;;;;;1.35;1.15;;;18.70;1.00;;;;;;5048368;28;20348;-65
2022/04/03 08:45:13;;;;;;;2.20;1.40;;;19.90;1.00;;;;;;5048206;28;20493;-65
2022/04/03 08:47:44;;;;;;;2.55;1.50;;;19.50;1.00;;;;;;5047562;28;20582;-66
2022/04/03 08:50:10;;;;;;;1.73;1.55;;;18.00;1.00;;;;;;5063768;28;20036;-66
2022/04/03 08:52:37;;;;;;;1.10;1.00;;;16.50;1.00;;;;;;5048210;28;20055;-64
2022/04/03 08:55:04;;;;;;;1.48;1.25;;;15.00;1.00;;;;;;5048954;28;20461;-66
2022/04/03 08:57:30;;;;;;;2.53;1.40;;;13.80;1.90;;;;;;5067678;28;20059;-66
2022/04/03 08:59:56;;;;;;;1.60;1.20;;;12.80;2.70;;;;;;5061863;28;20110;-65
2022/04/03 09:02:21;;;;;;;2.53;1.38;;;11.90;3.60;;;;;;5048160;28;20078;-66
2022/04/03 09:04:47;;;;;;;1.55;1.30;;;11.30;4.10;;;;;;5050958;28;20032;-65
2022/04/03 09:07:18;;;;;;;3.25;1.65;;;10.90;4.60;;;;;;5067163;28;20020;-66
2022/04/03 09:09:44;;;;;;;1.50;1.23;;;10.80;4.90;;;;;;5060383;28;20032;-67
2022/04/03 09:12:15;;;;;;;1.55;1.08;;;10.70;5.20;;;;;;5047966;28;20044;-66
2022/04/03 09:14:59;;;;;;;3.13;1.17;;;10.70;5.40;;;;;;5052237;28;20049;-66
2022/04/03 09:17:40;;;;;;;3.00;1.40;;;10.30;6.30;;;;;;5044404;28;20346;-65
2022/04/03 09:20:08;;;;;;;2.67;1.38;;;9.60;7.10;;;;;;5062892;28;20345;-66
2022/04/03 09:22:35;;;;;;;3.50;1.60;;;9.30;7.50;;;;;;5047576;28;20039;-64
2022/04/03 09:25:11;;;;;;;1.85;1.30;;;9.20;7.70;;;;;;5049214;28;20485;-51
2022/04/03 09:27:50;;;;;;;;;;;9.40;7.80;;;;;;5047982;28;20029;-53
2022/04/03 09:30:17;;;;;;;1.70;1.20;;;9.70;7.90;;;;;;5046818;28;19908;-57
2022/04/03 09:32:56;;;;;;;2.20;1.38;;;10.30;6.60;;;;;;5066883;28;20040;-59
2022/04/03 09:35:30;;;;;;;1.67;1.50;;;10.20;6.50;;;;;;5064581;28;20032;-59
2022/04/03 09:38:06;;;;;;;3.65;1.52;;;10.00;6.30;;;;;;5046438;28;20025;-59
2022/04/03 09:40:32;;;;;;;2.20;1.45;;;9.80;6.40;;;;;;5047834;28;20035;-59
2022/04/03 09:43:21;;;;;;;2.22;1.50;;;10.00;6.40;;;;;;5067110;28;20399;-59
2022/04/03 09:46:07;;;;;;;1.67;1.30;;;10.50;5.70;;;;;;5067277;28;20036;-59
2022/04/03 09:48:40;;;;;;;2.97;1.45;;;11.90;4.40;;;;;;5045350;28;20044;-56
2022/04/03 09:51:14;;;;;;;1.20;1.10;;;12.00;3.70;;;;;;5047218;28;20025;-56
2022/04/03 09:53:46;;;;;;;1.45;1.10;;;11.50;4.20;;;;;;5065126;28;20025;-58
2022/04/03 09:56:34;;;;;;;1.50;1.10;;;11.00;4.70;;;;;;5067364;28;20077;-59
2022/04/03 09:59:04;;;;;;;2.50;1.50;;;10.60;5.40;;;;;;5045254;28;20033;-58
2022/04/03 10:01:40;;;;;;;2.05;1.30;;;10.30;5.80;;;;;;5050149;28;20037;-58
2022/04/03 10:04:07;;;;;;;;;;;9.70;6.40;;;;;;5069096;28;20036;-58
2022/04/03 10:06:34;;;;;;;1.60;1.10;;;9.60;7.00;;;;;;5065006;28;20041;-56
2022/04/03 10:09:00;;;;;;;2.83;1.40;;;9.50;6.80;;;;;;5068567;28;20108;-59
2022/04/03 10:11:27;;;;;;;3.47;1.63;;;9.90;6.50;;;;;;5051129;28;20480;-54
2022/04/03 10:13:53;;;;;;;4.43;2.63;;;9.90;6.10;;;;;;5050302;28;20136;-58
2022/04/03 10:16:20;;;;;;;3.67;1.77;;;9.60;6.10;;;;;;5066225;28;20115;-58
2022/04/03 10:18:47;;;;;;;2.78;1.60;;;9.40;6.40;;;;;;5066422;28;20035;-56
2022/04/03 10:22:05;;;;;;;3.70;1.50;;;9.20;6.60;;;;;;5061551;28;20392;-56
2022/04/03 10:25:30;;;;;;;1.83;1.35;;;9.10;7.00;;;;;;5048376;28;20564;-57
2022/04/03 10:28:56;;;;;;;2.63;1.50;;;8.90;7.30;;;;;;5064757;28;20029;-57
2022/04/03 10:32:21;;;;;;;3.28;1.52;;;9.00;7.00;;;;;;5065059;28;20388;-57
2022/04/03 10:35:50;;;;;;;3.33;1.88;;;9.20;6.40;;;;;;5068632;28;20039;-57
2022/04/03 10:38:55;;;;;;;;;;;9.50;6.20;;;;;;5065082;28;20044;-57
2022/04/03 10:42:32;;;;;;;2.38;1.60;;;10.00;5.90;;;;;;5048538;28;19912;-58
2022/04/03 10:46:00;;;;;;;4.10;1.77;;;10.30;5.30;;;;;;5064519;28;20442;-57
2022/04/03 10:49:26;;;;;;;1.98;1.38;;;10.10;4.90;;;;;;5067791;28;20517;-56
2022/04/03 10:52:43;;;;;;;3.28;1.13;;;10.00;4.30;;;;;;5059234;28;20044;-56
2022/04/03 10:56:08;;;;;;;1.60;1.40;;;9.90;4.30;;;;;;5064306;28;20068;-56
2022/04/03 10:59:34;;;;;;;1.38;1.00;;;10.00;4.20;;;;;;5066435;28;20097;-56
2022/04/03 11:03:02;;;;;;;4.55;1.67;;;10.00;4.20;;;;;;5049108;28;20658;-56
2022/04/03 11:06:37;;;;;;;2.00;1.67;;;10.10;4.10;;;;;;5064341;28;20520;-57
2022/04/03 11:10:02;;;;;;;2.00;1.40;;;10.00;4.00;;;;;;5051269;28;20041;-57
2022/04/03 11:13:37;;;;;;;1.80;1.20;;;9.80;3.90;;;;;;5047384;28;20048;-57
2022/04/03 11:17:02;;;;;;;4.28;1.38;;;9.90;4.50;;;;;;5056780;28;20404;-57
2022/04/03 11:20:27;;;;;;;3.30;1.73;;;10.10;4.20;;;;;;5049500;28;20033;-56
2022/04/03 11:24:05;;;;;;;4.78;2.30;;;10.30;3.90;;;;;;5063710;28;20400;-56
2022/04/03 11:27:30;;;;;;;5.38;2.50;;;10.70;3.90;;;;;;5054539;28;20512;-55
2022/04/03 11:30:56;;;;;;;8.85;3.55;;;10.90;3.70;;;;;;5063631;28;20363;-57
2022/04/03 11:34:21;;;;;;;5.65;2.75;;;11.10;3.20;;;;;;5049596;28;20052;-56
2022/04/03 11:37:47;;;;;;;3.03;1.88;;;11.20;3.30;;;;;;5049821;28;20446;-56
2022/04/03 11:41:12;;;;;;;3.22;1.80;;;11.00;3.30;;;;;;5063276;28;20047;-56
2022/04/03 11:44:42;;;;;;;1.75;1.20;;;10.80;3.10;;;;;;5063463;28;20563;-53
2022/04/03 11:47:45;;;;;;;;;;;10.70;3.60;;;;;;5047481;28;20461;-55
2022/04/03 11:51:11;;;;;;;4.50;1.30;;;10.80;3.00;;;;;;5048623;28;20350;-55
2022/04/03 11:54:36;;;;;;;2.05;1.25;;;10.60;3.60;;;;;;5048858;28;20037;-57
2022/04/03 11:58:04;;;;;;;1.48;0.80;;;10.50;3.40;;;;;;5047563;28;20118;-57
2022/04/03 12:01:27;;;;;;;1.58;1.20;;;10.30;3.60;;;;;;5062290;28;20033;-57
2022/04/03 12:04:52;;;;;;;3.97;2.08;;;10.50;3.30;;;;;;5053769;28;20555;-56
2022/04/03 12:08:04;;;;;;;1.80;1.33;;;10.90;2.70;;;;;;5063028;28;20044;-57
2022/04/03 12:10:33;;;;;;;2.78;1.40;;;10.90;2.50;;;;;;5030808;28;20159;-56
2022/04/03 12:12:58;;;;;;;2.38;1.30;;;10.80;3.10;;;;;;5066387;28;20052;-54
2022/04/03 12:15:30;;;;;;;2.05;1.55;;;10.70;3.10;;;;;;5056283;28;20397;-54
2022/04/03 12:17:56;;;;;;;1.92;1.50;;;10.70;3.00;;;;;;5046625;28;20029;-52
2022/04/03 12:20:22;;;;;;;2.33;1.70;;;10.60;3.00;;;;;;5048393;28;20021;-56
2022/04/03 12:22:51;;;;;;;3.88;1.50;;;10.70;3.30;;;;;;5067754;28;20029;-56
2022/04/03 12:25:20;;;;;;;3.83;1.70;;;10.70;3.20;;;;;;5048581;28;20033;-54
2022/04/03 12:27:50;;;;;;;1.40;1.00;;;10.70;3.20;;;;;;5067450;28;20055;-56
2022/04/03 12:30:15;;;;;;;2.00;1.52;;;10.70;3.30;;;;;;5031244;28;20029;-55
2022/04/03 12:32:44;;;;;;;1.63;1.27;;;10.80;3.40;;;;;;5067519;28;20527;-54
2022/04/03 12:35:11;;;;;;;4.55;2.17;;;10.80;3.30;;;;;;5061506;28;20025;-55
2022/04/03 12:37:40;;;;;;;3.33;2.00;;;10.80;3.90;;;;;;5048622;28;20044;-52
2022/04/03 12:40:08;;;;;;;2.22;1.60;;;10.70;3.40;;;;;;5051529;28;20021;-53
2022/04/03 12:42:41;;;;;;;2.95;1.80;;;10.60;3.50;;;;;;5067649;28;20029;-56
2022/04/03 12:45:18;;;;;;;2.63;1.73;;;10.50;3.40;;;;;;5060572;28;20392;-55
2022/04/03 12:48:03;;;;;;;4.60;1.23;;;10.60;3.40;;;;;;5048283;28;20045;-55
2022/04/03 12:50:34;;;;;;;2.13;1.38;;;10.70;3.60;;;;;;5048619;28;20406;-55
2022/04/03 12:53:03;;;;;;;3.50;1.38;;;10.80;3.40;;;;;;5067708;28;20376;-54
2022/04/03 12:55:52;;;;;;;17.33;7.97;;;11.00;3.30;;;;;;5063906;28;20561;-52
2022/04/03 12:58:33;;;;;;;5.32;2.55;;;10.90;2.60;;;;;;5037701;28;20124;-54
2022/04/03 13:01:14;;;;;;;3.58;2.28;;;10.80;3.20;;;;;;5048061;28;20037;-54
2022/04/03 13:03:49;;;;;;;2.78;1.67;;;10.70;3.30;;;;;;5045739;28;20040;-51
2022/04/03 13:06:25;;;;;;;4.28;1.85;;;10.60;3.80;;;;;;5047916;28;20404;-53
2022/04/03 13:08:58;;;;;;;3.20;1.67;;;10.60;4.20;;;;;;5065532;28;20032;-53
2022/04/03 13:11:37;;;;;;;2.65;1.50;;;10.50;4.50;;;;;;5067815;28;20025;-56
2022/04/03 13:14:30;;;;;;;2.05;1.30;;;10.40;4.70;;;;;;5045927;28;20321;-55
2022/04/03 13:16:57;;;;;;;4.22;1.52;;;10.30;4.90;;;;;;5060796;28;20045;-50
2022/04/03 13:19:26;;;;;;;2.08;0.80;;;10.30;4.80;;;;;;5045926;28;20025;-52
2022/04/03 13:21:54;;;;;;;3.17;1.08;;;10.20;4.90;;;;;;5067257;28;20039;-54
2022/04/03 13:24:20;;;;;;;4.20;1.00;;;10.20;5.00;;;;;;5046159;28;20037;-52
2022/04/03 13:26:46;;;;;;;1.80;1.48;;;10.00;5.00;;;;;;5066649;28;20031;-54
2022/04/03 13:29:12;;;;;;;4.32;1.40;;;10.00;5.10;;;;;;5046318;28;20112;-55
2022/04/03 13:31:40;;;;;;;4.07;1.63;;;9.90;5.20;;;;;;5047534;28;20037;-53
2022/04/03 13:34:06;;;;;;;3.80;1.35;;;9.90;5.40;;;;;;5065251;28;20123;-53
2022/04/03 13:36:33;;;;;;;2.08;1.08;;;9.90;5.50;;;;;;5067624;28;20331;-50
2022/04/03 13:39:00;;;;;;;2.83;1.63;;;9.70;5.70;;;;;;5065962;28;20103;-55
2022/04/03 13:41:25;;;;;;;1.55;1.08;;;9.50;6.00;;;;;;5051574;28;20116;-55
2022/04/03 13:43:51;;;;;;;1.92;1.20;;;9.30;6.30;;;;;;5050001;28;20381;-54
2022/04/03 13:46:17;;;;;;;3.10;1.55;;;9.30;6.50;;;;;;5068324;28;20037;-54
2022/04/03 13:48:42;;;;;;;2.60;1.42;;;9.40;6.50;;;;;;5067334;28;20025;-54
2022/04/03 13:51:11;;;;;;;2.50;1.05;;;9.40;6.30;;;;;;5051815;28;20029;-55